Urubici, Brazil
Current Conditions -  °F | °C
As of 10:00 PM on Sunday 25 Jan 2015 (Local Time) from SBCM Reporting Station
Few Clouds Few Clouds  
Wind Chill: 77°   Ceiling: Unl
Heat Index: 78°   Visibility: 6mi
Dew Point: 72°   Wind: 5mph
Humidity: 83%   Direction: 300°WNW
Pressure: 29.83"   Gusts: NA
Location:  28.02°S, 49.59°W
Report Text: SBCM 260000Z 30004KT 9999 FEW030 25/22 Q1010
Loading
Personal Weather Stations






























Interactive Weather Map New forecast layout! Learn more

10-Day Weather Forecast

Advertisements
Track Severe Weather on mobile